Impacts METAR Board
IDs:

KDFW - Dallas-Ft Worth Intl, TX, US

Updated at: 0600 UTC 11 Dec 2018
Potential Impact None Slight Moderate High
Time 10/18Z 10/19Z 10/20Z 10/21Z 10/22Z 10/23Z 11/00Z 11/01Z 11/02Z 11/03Z 11/04Z 11/05Z 11/06Z
Temp51 53 57 56 56 53 49 48 46 44 43 41 41
Dewpt28 27 25 21 22 26 25 27 28 30 31 31 31
Altim30.37 30.35 30.32 30.31 30.31 30.31 30.31 30.33 30.34 30.33 30.34 30.34 30.34
VIS10 10 10 10 10 10 10 10 10 10 10 10 10
CIG-- -- -- -- -- -- -- -- -- -- -- -- --
CoverCLRCLRCLRCLRCLRCLRFEWCLRCLRCLRCLRCLRCLR
FltCatVFRVFRVFRVFRVFRVFRVFRVFRVFRVFRVFRVFRVFR
WX--------------------------
WDir210031000170170170170180180180190
WSpd5 0 6 0 0 5 7 8 6 6 7 7 6
WGst-- -- -- -- -- -- -- -- -- -- -- -- --
Raw hourly METARs
KDFW 101753Z 21005KT 10SM CLR 11/M02 A3037 RMK AO2 SLP285 T01061022 10106 21011 58003
KDFW 101853Z 00000KT 10SM CLR 12/M03 A3035 RMK AO2 SLP276 T01171028
KDFW 101953Z 31006KT 10SM CLR 14/M04 A3032 RMK AO2 SLP267 T01391039
KDFW 102053Z 00000KT 10SM CLR 13/M06 A3031 RMK AO2 SLP265 T01331061 56020
KDFW 102153Z 00000KT 10SM CLR 13/M06 A3031 RMK AO2 SLP265 T01331056
KDFW 102253Z 17005KT 10SM CLR 12/M03 A3031 RMK AO2 SLP265 T01171033
KDFW 102353Z 17007KT 10SM FEW300 09/M04 A3031 RMK AO2 SLP266 T00941039 10144 20094 52000
KDFW 110053Z 17008KT 10SM CLR 09/M03 A3033 RMK AO2 SLP270 T00891028
KDFW 110153Z 17006KT 10SM CLR 08/M02 A3034 RMK AO2 SLP273 T00781022
KDFW 110253Z 18006KT 10SM CLR 07/M01 A3033 RMK AO2 SLP272 T00671011 50006
KDFW 110353Z 18007KT 10SM CLR 06/M01 A3034 RMK AO2 SLP273 T00611006
KDFW 110453Z 18007KT 10SM CLR 05/M01 A3034 RMK AO2 SLP272 T00501006
KDFW 110553Z 19006KT 10SM CLR 05/M01 A3034 RMK AO2 SLP273 T00501006 10094 20044 401441011 51002



Page loaded:  06:56 UTC  |   10:56 PM Pacific  |   11:56 PM Mountain  |   12:56 AM Central  |   01:56 AM Eastern

 

ADVISORIES

FORECASTS

FORECASTS

OBSERVATIONS

USER TOOLS

ABOUT US